Bencomo Express — EAZD — position and weather

sailwx.info

Track history (hours):
 
Tides and Currents Weather Stations Pressure Air Temp Water Temp Dewpoint Dewpoint Depression Visibility Wind Speed Wind Dir Waves Ship Positions

Bencomo Express

Last reported at 2018-Feb-23 06:36 UTC. Time now 2018-Feb-24 15:37 UTC.
Position N 28°18' W 016°00'.

Length 95 m; draft 3.8 m.

MMSI: 224441000.

Date/timePositionNaut miles runAvg speedWind from/ knotsBaromVisibWave heightAir tempDewpointWater temp
2018-Feb-23 06:36N 28°18' W 016°00'431.8
2018-Feb-23 06:29N 28°21' W 016°04'1226.0
2018-Feb-23 06:00N 28°28' W 016°15'0 0.4
2018-Feb-23 05:30N 28°28' W 016°15'0 0.0
2018-Feb-23 05:00N 28°28' W 016°15'0 0.0
2018-Feb-23 04:30N 28°28' W 016°15'0 0.0
2018-Feb-23 03:59N 28°28' W 016°15'0 0.0
2018-Feb-23 03:30N 28°28' W 016°15'0 0.0
2018-Feb-23 03:00N 28°28' W 016°15'0 0.0
2018-Feb-23 02:30N 28°28' W 016°15'0 0.0
2018-Feb-23 02:00N 28°28' W 016°15'0 0.0
2018-Feb-23 01:30N 28°28' W 016°15'0 0.0
2018-Feb-23 01:00N 28°28' W 016°15'0 0.0
2018-Feb-23 00:30N 28°28' W 016°15'0 0.0
2018-Feb-23 00:00N 28°28' W 016°15'0 0.0
2018-Feb-22 23:30N 28°28' W 016°15'0 0.0
2018-Feb-22 23:00N 28°28' W 016°15'0 0.0
2018-Feb-22 22:29N 28°28' W 016°15'0 0.0
2018-Feb-22 22:00N 28°28' W 016°15'0 0.0
2018-Feb-22 21:30N 28°28' W 016°15'4 7.1
2018-Feb-22 21:00N 28°27' W 016°11'11 4.5
2018-Feb-22 18:29N 28°19' W 016°02'1530.9
2018-Feb-22 18:00N 28°29' W 016°14'1 1.3
2018-Feb-22 17:30N 28°28' W 016°15'2 3.9
2018-Feb-22 17:00N 28°28' W 016°13'11 4.4
2018-Feb-22 14:29N 28°21' W 016°03'1326.4
2018-Feb-22 14:00N 28°29' W 016°14'1 1.0
2018-Feb-22 13:29N 28°28' W 016°15'0 0.2
2018-Feb-22 13:00N 28°28' W 016°15'0 0.0
2018-Feb-22 12:31N 28°28' W 016°15'0 0.0
2018-Feb-22 12:00N 28°28' W 016°15'0 0.0
2018-Feb-22 11:31N 28°28' W 016°15'0 0.0
2018-Feb-22 10:59N 28°28' W 016°15'0 0.0
2018-Feb-22 10:31N 28°28' W 016°15'0 0.2
2018-Feb-22 10:01N 28°28' W 016°15'0 0.0
2018-Feb-22 09:31N 28°28' W 016°15'3 6.8
2018-Feb-22 09:00N 28°26' W 016°11'8 3.2
2018-Feb-22 06:24N 28°21' W 016°04'1230.3
2018-Feb-22 06:01N 28°29' W 016°14'1 1.5
2018-Feb-22 05:30N 28°28' W 016°15'0 0.0
2018-Feb-22 05:01N 28°28' W 016°15'0 0.0
2018-Feb-22 04:31N 28°28' W 016°15'0 0.0
2018-Feb-22 04:01N 28°28' W 016°15'0 0.0
2018-Feb-22 03:30N 28°28' W 016°15'0 0.0
2018-Feb-22 03:01N 28°28' W 016°15'0 0.0
2018-Feb-22 02:31N 28°28' W 016°15'0 0.0
2018-Feb-22 02:01N 28°28' W 016°15'0 0.0
2018-Feb-22 01:30N 28°28' W 016°15'0 0.0
2018-Feb-22 01:01N 28°28' W 016°15'0 0.0
2018-Feb-22 00:29N 28°28' W 016°15'0 0.0
2018-Feb-22 00:01N 28°28' W 016°15'0 0.0
2018-Feb-21 23:31N 28°28' W 016°15'0 0.0
2018-Feb-21 23:00N 28°28' W 016°15'0 0.0
2018-Feb-21 22:31N 28°28' W 016°15'0 0.0
2018-Feb-21 22:01N 28°28' W 016°15'0 0.0
2018-Feb-21 21:31N 28°28' W 016°15'713.0
2018-Feb-21 21:00N 28°25' W 016°09'5 2.0
2018-Feb-21 18:24N 28°21' W 016°04'1230.1
2018-Feb-21 18:00N 28°29' W 016°14'0 1.0
2018-Feb-21 17:30N 28°28' W 016°15'3 6.8
2018-Feb-21 17:00N 28°27' W 016°11'9 3.5
2018-Feb-21 14:27N 28°21' W 016°04'1226.7
2018-Feb-21 14:00N 28°29' W 016°14'1 1.0
2018-Feb-21 13:28N 28°28' W 016°15'0 0.7
2018-Feb-21 13:00N 28°29' W 016°15'0 0.0
2018-Feb-21 12:30N 28°29' W 016°15'0 0.0
2018-Feb-21 12:00N 28°29' W 016°15'0 0.0
2018-Feb-21 11:30N 28°29' W 016°15'0 0.0
2018-Feb-21 11:00N 28°29' W 016°15'0 0.0
2018-Feb-21 10:29N 28°29' W 016°15'0 0.7
2018-Feb-21 10:00N 28°28' W 016°15'0 0.0
2018-Feb-21 09:30N 28°28' W 016°15'713.9
2018-Feb-21 09:01N 28°23' W 016°09'8 3.4
2018-Feb-21 06:32N 28°19' W 016°01'129.6
2018-Feb-21 06:29N 28°20' W 016°02'1429.4
2018-Feb-21 06:01N 28°29' W 016°14'1 1.3
2018-Feb-21 05:30N 28°28' W 016°15'0 0.0
2018-Feb-21 05:00N 28°28' W 016°15'0 0.0
2018-Feb-21 04:30N 28°28' W 016°15'0 0.0
2018-Feb-21 04:01N 28°28' W 016°15'0 0.0
2018-Feb-21 03:31N 28°28' W 016°15'0 0.0
2018-Feb-21 03:00N 28°28' W 016°15'0 0.0
2018-Feb-21 02:31N 28°28' W 016°15'0 0.0
2018-Feb-21 02:00N 28°28' W 016°15'0 0.0
2018-Feb-21 01:30N 28°28' W 016°15'0 0.0
2018-Feb-21 00:58N 28°28' W 016°15'0 0.0
2018-Feb-21 00:31N 28°28' W 016°15'0 0.0
2018-Feb-21 00:00N 28°28' W 016°15'0 0.0
2018-Feb-20 23:30N 28°28' W 016°15'0 0.0
2018-Feb-20 23:00N 28°28' W 016°15'0 0.0
2018-Feb-20 22:31N 28°28' W 016°15'0 0.0
2018-Feb-20 22:01N 28°28' W 016°15'0 0.0
2018-Feb-20 21:30N 28°28' W 016°15'5 9.7
2018-Feb-20 21:01N 28°26' W 016°10'8 3.3
2018-Feb-20 18:25N 28°20' W 016°03'1331.8
2018-Feb-20 18:01N 28°29' W 016°14'1 1.4
2018-Feb-20 17:30N 28°28' W 016°15'3 6.8
2018-Feb-20 17:00N 28°27' W 016°11'10 4.1
2018-Feb-20 14:29N 28°19' W 016°03'1428.8
2018-Feb-20 14:00N 28°29' W 016°14'1 0.0
2018-Feb-19 09:23N 28°28' W 016°15'718.8
2018-Feb-19 09:00N 28°24' W 016°08'6 2.3
2018-Feb-19 06:30N 28°20' W 016°03'1326.2
2018-Feb-19 06:00N 28°28' W 016°15'0 0.4
2018-Feb-19 05:30N 28°28' W 016°15'0 0.0
2018-Feb-19 05:00N 28°28' W 016°15'0 0.0
2018-Feb-19 04:31N 28°28' W 016°15'0 0.0
2018-Feb-19 04:00N 28°28' W 016°15'0 0.0
2018-Feb-19 03:30N 28°28' W 016°15'0 0.0
2018-Feb-19 03:00N 28°28' W 016°15'0 0.0
2018-Feb-19 02:30N 28°28' W 016°15'0 0.0
2018-Feb-19 02:00N 28°28' W 016°15'0 0.0
2018-Feb-19 01:31N 28°28' W 016°15'0 0.0
2018-Feb-19 00:59N 28°28' W 016°15'0 0.0
2018-Feb-19 00:30N 28°28' W 016°15'0 0.0
2018-Feb-19 00:00N 28°28' W 016°15'0 0.0
2018-Feb-18 23:30N 28°28' W 016°15'0 0.0
2018-Feb-18 23:01N 28°28' W 016°15'0 0.0
2018-Feb-18 22:31N 28°28' W 016°15'0 0.0
2018-Feb-18 22:01N 28°28' W 016°15'0 0.0
2018-Feb-18 21:31N 28°28' W 016°15'918.8
2018-Feb-18 21:00N 28°23' W 016°06'4 1.5
2018-Feb-18 18:24N 28°20' W 016°03'1333.4
2018-Feb-18 18:01N 28°29' W 016°14'1 1.7
2018-Feb-18 17:30N 28°28' W 016°15'2 4.5
2018-Feb-18 17:01N 28°28' W 016°12'11 4.3
2018-Feb-18 14:29N 28°21' W 016°03'1327.0
2018-Feb-18 14:00N 28°28' W 016°15'0 0.1
2018-Feb-18 13:31N 28°28' W 016°15'1 1.9
2018-Feb-18 13:00N 28°29' W 016°14'13 3.6
2018-Feb-18 09:30N 28°20' W 016°03'1325.6
2018-Feb-18 09:01N 28°28' W 016°15'0 0.0
2018-Feb-18 08:31N 28°28' W 016°15'0 0.0
2018-Feb-18 08:01N 28°28' W 016°15'0 0.0
2018-Feb-18 07:30N 28°28' W 016°15'0 0.0
2018-Feb-18 07:00N 28°28' W 016°15'0 0.0
2018-Feb-18 06:31N 28°28' W 016°15'0 0.0
2018-Feb-18 06:01N 28°28' W 016°15'0 0.0
2018-Feb-18 05:30N 28°28' W 016°15'0 0.0
2018-Feb-18 05:00N 28°28' W 016°15'0 0.0
2018-Feb-18 04:31N 28°28' W 016°15'0 0.0
2018-Feb-18 04:01N 28°28' W 016°15'0 0.0
2018-Feb-18 03:31N 28°28' W 016°15'0 0.0
2018-Feb-18 03:01N 28°28' W 016°15'0 0.0
2018-Feb-18 02:30N 28°28' W 016°15'0 0.0
2018-Feb-18 02:01N 28°28' W 016°15'0 0.0
2018-Feb-18 01:31N 28°28' W 016°15'0 0.0
2018-Feb-18 01:01N 28°28' W 016°15'0 0.0
2018-Feb-18 00:30N 28°28' W 016°15'0 0.0
2018-Feb-18 00:00N 28°28' W 016°15'0 0.0
2018-Feb-17 23:31N 28°28' W 016°15'0 0.0
2018-Feb-17 23:01N 28°28' W 016°15'0 0.0
2018-Feb-17 22:30N 28°28' W 016°15'0 0.0
2018-Feb-17 22:01N 28°28' W 016°15'0 0.0
2018-Feb-17 21:30N 28°28' W 016°15'1523.7
2018-Feb-17 20:53N 28°19' W 016°02'1 0.5
2018-Feb-17 18:27N 28°20' W 016°03'1330.5
2018-Feb-17 18:01N 28°29' W 016°14'1 1.3
2018-Feb-17 17:31N 28°28' W 016°15'0 0.0
2018-Feb-17 17:01N 28°28' W 016°15'0 0.0
2018-Feb-17 16:31N 28°28' W 016°15'0 0.0
2018-Feb-17 16:01N 28°28' W 016°15'0 0.0
2018-Feb-17 15:31N 28°28' W 016°15'0 0.0
2018-Feb-17 15:01N 28°28' W 016°15'0 0.0
2018-Feb-17 14:31N 28°28' W 016°15'0 0.0
2018-Feb-17 14:01N 28°28' W 016°15'0 0.0
2018-Feb-17 13:31N 28°28' W 016°15'0 0.0
2018-Feb-17 13:01N 28°28' W 016°15'0 0.0
2018-Feb-17 12:31N 28°28' W 016°15'0 0.0
2018-Feb-17 12:00N 28°28' W 016°15'816.3
2018-Feb-17 11:30N 28°24' W 016°07'7 2.6
2018-Feb-17 08:58N 28°19' W 016°02'1431.2
2018-Feb-17 08:30N 28°29' W 016°14'1 1.2
2018-Feb-17 08:00N 28°28' W 016°15'0 0.0
2018-Feb-17 07:30N 28°28' W 016°15'0 0.0
2018-Feb-17 07:00N 28°28' W 016°15'0 0.0
2018-Feb-17 06:30N 28°28' W 016°15'0 0.0
2018-Feb-17 06:00N 28°28' W 016°15'0 0.0
2018-Feb-17 05:30N 28°28' W 016°15'0 0.0
2018-Feb-17 05:00N 28°28' W 016°15'0 0.0
2018-Feb-17 04:30N 28°28' W 016°15'0 0.0
2018-Feb-17 04:00N 28°28' W 016°15'0 0.0
2018-Feb-17 03:30N 28°28' W 016°15'0 0.0
2018-Feb-17 03:00N 28°28' W 016°15'0 0.0
2018-Feb-17 02:30N 28°28' W 016°15'0 0.0
2018-Feb-17 02:00N 28°28' W 016°15'0 0.0
2018-Feb-17 01:30N 28°28' W 016°15'0 0.0
2018-Feb-17 00:59N 28°28' W 016°15'0 0.0
2018-Feb-17 00:30N 28°28' W 016°15'0 0.0
2018-Feb-17 00:00N 28°28' W 016°15'0 0.0
2018-Feb-16 23:30N 28°28' W 016°15'0 0.0
2018-Feb-16 23:00N 28°28' W 016°15'0 0.0
2018-Feb-16 22:30N 28°28' W 016°15'0 0.0
2018-Feb-16 21:59N 28°28' W 016°15'0 0.0
2018-Feb-16 21:30N 28°28' W 016°15'917.3
2018-Feb-16 21:00N 28°23' W 016°06'5 1.9
2018-Feb-16 18:30N 28°20' W 016°03'1325.7
2018-Feb-16 17:59N 28°28' W 016°15'0 0.0
2018-Feb-16 17:30N 28°28' W 016°15'918.3
2018-Feb-16 17:00N 28°23' W 016°06'2718.3
2018-Feb-16 15:32N 28°06' W 015°43'0 0.9
2018-Feb-16 15:22N 28°06' W 015°43'925.7
2018-Feb-16 15:01N 28°11' W 015°51'1631.3
2018-Feb-16 14:30N 28°22' W 016°05'1121.9
2018-Feb-16 14:00N 28°28' W 016°15'0 0.0
2018-Feb-16 13:30N 28°28' W 016°15'0 0.5
2018-Feb-16 13:00N 28°28' W 016°14'0 0.0
2018-Feb-16 12:31N 28°28' W 016°14'0 0.0
2018-Feb-16 12:00N 28°28' W 016°14'0 0.0
2018-Feb-16 11:30N 28°28' W 016°14'0 0.0
2018-Feb-16 11:00N 28°28' W 016°14'0 0.0
2018-Feb-16 10:30N 28°28' W 016°14'0 0.5
2018-Feb-16 10:00N 28°28' W 016°15'0 0.0
2018-Feb-16 09:30N 28°28' W 016°15'4 7.5
2018-Feb-16 09:00N 28°27' W 016°11'11 4.4
2018-Feb-16 06:30N 28°19' W 016°02'1529.2
2018-Feb-16 06:00N 28°29' W 016°14'0 0.8
2018-Feb-16 05:30N 28°28' W 016°15'0 0.0
2018-Feb-16 05:00N 28°28' W 016°15'0 0.0
2018-Feb-16 04:30N 28°28' W 016°15'0 0.0
2018-Feb-16 04:00N 28°28' W 016°15'0 0.0
2018-Feb-16 03:29N 28°28' W 016°15'0 0.0
2018-Feb-16 03:00N 28°28' W 016°15'0 0.0
2018-Feb-16 02:29N 28°28' W 016°15'0 0.0
2018-Feb-16 02:00N 28°28' W 016°15'0 0.0
2018-Feb-16 01:30N 28°28' W 016°15'0 0.0
2018-Feb-16 01:00N 28°28' W 016°15'0 0.0
2018-Feb-16 00:30N 28°28' W 016°15'0 0.0
2018-Feb-16 00:00N 28°28' W 016°15'0 0.0
2018-Feb-15 23:30N 28°28' W 016°15'0 0.0
2018-Feb-15 23:00N 28°28' W 016°15'0 0.0
2018-Feb-15 22:30N 28°28' W 016°15'0 0.0
2018-Feb-15 22:00N 28°28' W 016°15'0 0.0
2018-Feb-15 21:30N 28°28' W 016°15'611.1
2018-Feb-15 21:00N 28°26' W 016°09'7 2.6
2018-Feb-15 18:26N 28°21' W 016°04'1228.9
2018-Feb-15 18:01N 28°28' W 016°15'0 0.6
2018-Feb-15 17:31N 28°28' W 016°15'611.7
2018-Feb-15 17:00N 28°25' W 016°09'9 3.5
2018-Feb-15 14:36N 28°19' W 016°02'329.2
2018-Feb-15 14:30N 28°21' W 016°05'1122.9
2018-Feb-15 14:00N 28°28' W 016°15'0 0.1
2018-Feb-15 13:30N 28°28' W 016°15'0 0.3
2018-Feb-15 13:00N 28°28' W 016°15'0 0.0
2018-Feb-15 12:30N 28°28' W 016°15'0 0.0
2018-Feb-15 12:00N 28°28' W 016°15'0 0.0
2018-Feb-15 11:30N 28°28' W 016°15'0 0.0
2018-Feb-15 11:00N 28°28' W 016°15'0 0.0
2018-Feb-15 10:30N 28°28' W 016°15'0 0.3
2018-Feb-15 10:00N 28°28' W 016°15'0 0.0
2018-Feb-15 09:30N 28°28' W 016°15'511.0
2018-Feb-15 09:00N 28°26' W 016°09'6 2.4
2018-Feb-15 06:28N 28°21' W 016°04'1225.2
2018-Feb-15 06:01N 28°28' W 016°15'0 0.1
2018-Feb-15 05:30N 28°28' W 016°15'0 0.0
2018-Feb-15 05:00N 28°28' W 016°15'0 0.0
2018-Feb-15 04:30N 28°28' W 016°15'0 0.0
2018-Feb-15 04:00N 28°28' W 016°15'0 0.0
2018-Feb-15 03:30N 28°28' W 016°15'0 0.0
2018-Feb-15 03:00N 28°28' W 016°15'0 0.0
2018-Feb-15 02:30N 28°28' W 016°15'0 0.0
2018-Feb-15 02:00N 28°28' W 016°15'0 0.0
2018-Feb-15 01:30N 28°28' W 016°15'0 0.0
2018-Feb-15 01:00N 28°28' W 016°15'0 0.0
2018-Feb-15 00:30N 28°28' W 016°15'0 0.0
2018-Feb-15 00:00N 28°28' W 016°15'0 0.0
2018-Feb-14 23:30N 28°28' W 016°15'0 0.0
2018-Feb-14 23:00N 28°28' W 016°15'0 0.0
2018-Feb-14 22:30N 28°28' W 016°15'0 0.0
2018-Feb-14 22:00N 28°28' W 016°15'0 0.0
2018-Feb-14 21:30N 28°28' W 016°15'510.3
2018-Feb-14 21:00N 28°26' W 016°10'9 3.7
2018-Feb-14 18:35N 28°20' W 016°02'331.6
2018-Feb-14 18:30N 28°22' W 016°04'1123.1
2018-Feb-14 18:00N 28°28' W 016°15'0 0.0
2018-Feb-14 17:29N 28°28' W 016°15'3 6.8
2018-Feb-14 17:01N 28°26' W 016°12'8 3.3
2018-Feb-14 14:30N 28°21' W 016°05'1223.2
2018-Feb-14 14:00N 28°28' W 016°15'0 0.4
2018-Feb-14 13:29N 28°28' W 016°15'0 0.9
2018-Feb-14 13:00N 28°28' W 016°14'0 0.0
2018-Feb-14 12:30N 28°28' W 016°14'0 0.0
2018-Feb-14 12:00N 28°28' W 016°14'0 0.0
2018-Feb-14 11:30N 28°28' W 016°14'0 0.0
2018-Feb-14 11:00N 28°28' W 016°14'0 0.0
2018-Feb-14 10:30N 28°28' W 016°14'0 0.8
2018-Feb-14 10:00N 28°28' W 016°15'0 0.0
2018-Feb-14 09:30N 28°28' W 016°15'612.0
2018-Feb-14 09:00N 28°25' W 016°09'7 2.6
2018-Feb-14 06:28N 28°20' W 016°04'1227.2
2018-Feb-14 06:00N 28°28' W 016°15'0 0.5
2018-Feb-14 05:30N 28°28' W 016°15'0 0.0
2018-Feb-14 05:00N 28°28' W 016°15'0 0.0
2018-Feb-14 04:30N 28°28' W 016°15'0 0.0
2018-Feb-14 04:00N 28°28' W 016°15'0 0.0
2018-Feb-14 03:30N 28°28' W 016°15'0 0.0
2018-Feb-14 03:00N 28°28' W 016°15'0 0.0
2018-Feb-14 02:29N 28°28' W 016°15'0 0.0
2018-Feb-14 01:59N 28°28' W 016°15'0 0.0
2018-Feb-14 01:29N 28°28' W 016°15'0 0.0
2018-Feb-14 01:00N 28°28' W 016°15'0 0.0
2018-Feb-14 00:30N 28°28' W 016°15'0 0.0
2018-Feb-14 00:00N 28°28' W 016°15'0 0.0
2018-Feb-13 23:30N 28°28' W 016°15'0 0.0
2018-Feb-13 23:00N 28°28' W 016°15'0 0.0
2018-Feb-13 22:30N 28°28' W 016°15'0 0.0
2018-Feb-13 22:00N 28°28' W 016°15'0 0.0
2018-Feb-13 21:30N 28°28' W 016°15'1 2.0
2018-Feb-13 21:01N 28°29' W 016°14'13 5.3
2018-Feb-13 18:33N 28°21' W 016°02'233.5
2018-Feb-13 18:29N 28°22' W 016°04'1121.8
2018-Feb-13 17:58N 28°28' W 016°15'0 0.0
2018-Feb-13 17:30N 28°28' W 016°15'1 2.4
2018-Feb-13 17:00N 28°28' W 016°13'13 1.8
2018-Feb-13 09:51N 28°20' W 016°03'1131.9
2018-Feb-13 09:30N 28°27' W 016°12'3 5.9
2018-Feb-13 09:00N 28°28' W 016°15'0 0.0
2018-Feb-13 08:29N 28°28' W 016°15'0 0.0
2018-Feb-13 08:00N 28°28' W 016°15'0 0.0
2018-Feb-13 07:29N 28°28' W 016°15'0 0.0
2018-Feb-13 07:00N 28°28' W 016°15'  
Track history (hours):
 
Tides and Currents Weather Stations Pressure Air Temp Water Temp Dewpoint Dewpoint Depression Visibility Wind Speed Wind Dir Waves Ship Positions

Bencomo Express

Last reported at 2018-Feb-23 06:36 UTC. Time now 2018-Feb-24 15:37 UTC.
Position N 28°18' W 016°00'.

Length 95 m; draft 3.8 m.

MMSI: 224441000.

Date/timePositionNaut miles runAvg speedWind from/ knotsBaromVisibWave heightAir tempDewpointWater temp
2018-Feb-23 06:36N 28°18' W 016°00'431.8
2018-Feb-23 06:29N 28°21' W 016°04'1226.0
2018-Feb-23 06:00N 28°28' W 016°15'0 0.4
2018-Feb-23 05:30N 28°28' W 016°15'0 0.0
2018-Feb-23 05:00N 28°28' W 016°15'0 0.0
2018-Feb-23 04:30N 28°28' W 016°15'0 0.0
2018-Feb-23 03:59N 28°28' W 016°15'0 0.0
2018-Feb-23 03:30N 28°28' W 016°15'0 0.0
2018-Feb-23 03:00N 28°28' W 016°15'0 0.0
2018-Feb-23 02:30N 28°28' W 016°15'0 0.0
2018-Feb-23 02:00N 28°28' W 016°15'0 0.0
2018-Feb-23 01:30N 28°28' W 016°15'0 0.0
2018-Feb-23 01:00N 28°28' W 016°15'0 0.0
2018-Feb-23 00:30N 28°28' W 016°15'0 0.0
2018-Feb-23 00:00N 28°28' W 016°15'0 0.0
2018-Feb-22 23:30N 28°28' W 016°15'0 0.0
2018-Feb-22 23:00N 28°28' W 016°15'0 0.0
2018-Feb-22 22:29N 28°28' W 016°15'0 0.0
2018-Feb-22 22:00N 28°28' W 016°15'0 0.0
2018-Feb-22 21:30N 28°28' W 016°15'4 7.1
2018-Feb-22 21:00N 28°27' W 016°11'11 4.5
2018-Feb-22 18:29N 28°19' W 016°02'1530.9
2018-Feb-22 18:00N 28°29' W 016°14'1 1.3
2018-Feb-22 17:30N 28°28' W 016°15'2 3.9
2018-Feb-22 17:00N 28°28' W 016°13'11 4.4
2018-Feb-22 14:29N 28°21' W 016°03'1326.4
2018-Feb-22 14:00N 28°29' W 016°14'1 1.0
2018-Feb-22 13:29N 28°28' W 016°15'0 0.2
2018-Feb-22 13:00N 28°28' W 016°15'0 0.0
2018-Feb-22 12:31N 28°28' W 016°15'0 0.0
2018-Feb-22 12:00N 28°28' W 016°15'0 0.0
2018-Feb-22 11:31N 28°28' W 016°15'0 0.0
2018-Feb-22 10:59N 28°28' W 016°15'0 0.0
2018-Feb-22 10:31N 28°28' W 016°15'0 0.2
2018-Feb-22 10:01N 28°28' W 016°15'0 0.0
2018-Feb-22 09:31N 28°28' W 016°15'3 6.8
2018-Feb-22 09:00N 28°26' W 016°11'8 3.2
2018-Feb-22 06:24N 28°21' W 016°04'1230.3
2018-Feb-22 06:01N 28°29' W 016°14'1 1.5
2018-Feb-22 05:30N 28°28' W 016°15'0 0.0
2018-Feb-22 05:01N 28°28' W 016°15'0 0.0
2018-Feb-22 04:31N 28°28' W 016°15'0 0.0
2018-Feb-22 04:01N 28°28' W 016°15'0 0.0
2018-Feb-22 03:30N 28°28' W 016°15'0 0.0
2018-Feb-22 03:01N 28°28' W 016°15'0 0.0
2018-Feb-22 02:31N 28°28' W 016°15'0 0.0
2018-Feb-22 02:01N 28°28' W 016°15'0 0.0
2018-Feb-22 01:30N 28°28' W 016°15'0 0.0
2018-Feb-22 01:01N 28°28' W 016°15'0 0.0
2018-Feb-22 00:29N 28°28' W 016°15'0 0.0
2018-Feb-22 00:01N 28°28' W 016°15'0 0.0
2018-Feb-21 23:31N 28°28' W 016°15'0 0.0
2018-Feb-21 23:00N 28°28' W 016°15'0 0.0
2018-Feb-21 22:31N 28°28' W 016°15'0 0.0
2018-Feb-21 22:01N 28°28' W 016°15'0 0.0
2018-Feb-21 21:31N 28°28' W 016°15'713.0
2018-Feb-21 21:00N 28°25' W 016°09'5 2.0
2018-Feb-21 18:24N 28°21' W 016°04'1230.1
2018-Feb-21 18:00N 28°29' W 016°14'0 1.0
2018-Feb-21 17:30N 28°28' W 016°15'3 6.8
2018-Feb-21 17:00N 28°27' W 016°11'9 3.5
2018-Feb-21 14:27N 28°21' W 016°04'1226.7
2018-Feb-21 14:00N 28°29' W 016°14'1 1.0
2018-Feb-21 13:28N 28°28' W 016°15'0 0.7
2018-Feb-21 13:00N 28°29' W 016°15'0 0.0
2018-Feb-21 12:30N 28°29' W 016°15'0 0.0
2018-Feb-21 12:00N 28°29' W 016°15'0 0.0
2018-Feb-21 11:30N 28°29' W 016°15'0 0.0
2018-Feb-21 11:00N 28°29' W 016°15'0 0.0
2018-Feb-21 10:29N 28°29' W 016°15'0 0.7
2018-Feb-21 10:00N 28°28' W 016°15'0 0.0
2018-Feb-21 09:30N 28°28' W 016°15'713.9
2018-Feb-21 09:01N 28°23' W 016°09'8 3.4
2018-Feb-21 06:32N 28°19' W 016°01'129.6
2018-Feb-21 06:29N 28°20' W 016°02'1429.4
2018-Feb-21 06:01N 28°29' W 016°14'1 1.3
2018-Feb-21 05:30N 28°28' W 016°15'0 0.0
2018-Feb-21 05:00N 28°28' W 016°15'0 0.0
2018-Feb-21 04:30N 28°28' W 016°15'0 0.0
2018-Feb-21 04:01N 28°28' W 016°15'0 0.0
2018-Feb-21 03:31N 28°28' W 016°15'0 0.0
2018-Feb-21 03:00N 28°28' W 016°15'0 0.0
2018-Feb-21 02:31N 28°28' W 016°15'0 0.0
2018-Feb-21 02:00N 28°28' W 016°15'0 0.0
2018-Feb-21 01:30N 28°28' W 016°15'0 0.0
2018-Feb-21 00:58N 28°28' W 016°15'0 0.0
2018-Feb-21 00:31N 28°28' W 016°15'0 0.0
2018-Feb-21 00:00N 28°28' W 016°15'0 0.0
2018-Feb-20 23:30N 28°28' W 016°15'0 0.0
2018-Feb-20 23:00N 28°28' W 016°15'0 0.0
2018-Feb-20 22:31N 28°28' W 016°15'0 0.0
2018-Feb-20 22:01N 28°28' W 016°15'0 0.0
2018-Feb-20 21:30N 28°28' W 016°15'5 9.7
2018-Feb-20 21:01N 28°26' W 016°10'8 3.3
2018-Feb-20 18:25N 28°20' W 016°03'1331.8
2018-Feb-20 18:01N 28°29' W 016°14'1 1.4
2018-Feb-20 17:30N 28°28' W 016°15'3 6.8
2018-Feb-20 17:00N 28°27' W 016°11'10 4.1
2018-Feb-20 14:29N 28°19' W 016°03'1428.8
2018-Feb-20 14:00N 28°29' W 016°14'1 0.0
2018-Feb-19 09:23N 28°28' W 016°15'718.8
2018-Feb-19 09:00N 28°24' W 016°08'6 2.3
2018-Feb-19 06:30N 28°20' W 016°03'1326.2
2018-Feb-19 06:00N 28°28' W 016°15'0 0.4
2018-Feb-19 05:30N 28°28' W 016°15'0 0.0
2018-Feb-19 05:00N 28°28' W 016°15'0 0.0
2018-Feb-19 04:31N 28°28' W 016°15'0 0.0
2018-Feb-19 04:00N 28°28' W 016°15'0 0.0
2018-Feb-19 03:30N 28°28' W 016°15'0 0.0
2018-Feb-19 03:00N 28°28' W 016°15'0 0.0
2018-Feb-19 02:30N 28°28' W 016°15'0 0.0
2018-Feb-19 02:00N 28°28' W 016°15'0 0.0
2018-Feb-19 01:31N 28°28' W 016°15'0 0.0
2018-Feb-19 00:59N 28°28' W 016°15'0 0.0
2018-Feb-19 00:30N 28°28' W 016°15'0 0.0
2018-Feb-19 00:00N 28°28' W 016°15'0 0.0
2018-Feb-18 23:30N 28°28' W 016°15'0 0.0
2018-Feb-18 23:01N 28°28' W 016°15'0 0.0
2018-Feb-18 22:31N 28°28' W 016°15'0 0.0
2018-Feb-18 22:01N 28°28' W 016°15'0 0.0
2018-Feb-18 21:31N 28°28' W 016°15'918.8
2018-Feb-18 21:00N 28°23' W 016°06'4 1.5
2018-Feb-18 18:24N 28°20' W 016°03'1333.4
2018-Feb-18 18:01N 28°29' W 016°14'1 1.7
2018-Feb-18 17:30N 28°28' W 016°15'2 4.5
2018-Feb-18 17:01N 28°28' W 016°12'11 4.3
2018-Feb-18 14:29N 28°21' W 016°03'1327.0
2018-Feb-18 14:00N 28°28' W 016°15'0 0.1
2018-Feb-18 13:31N 28°28' W 016°15'1 1.9
2018-Feb-18 13:00N 28°29' W 016°14'13 3.6
2018-Feb-18 09:30N 28°20' W 016°03'1325.6
2018-Feb-18 09:01N 28°28' W 016°15'0 0.0
2018-Feb-18 08:31N 28°28' W 016°15'0 0.0
2018-Feb-18 08:01N 28°28' W 016°15'0 0.0
2018-Feb-18 07:30N 28°28' W 016°15'0 0.0
2018-Feb-18 07:00N 28°28' W 016°15'0 0.0
2018-Feb-18 06:31N 28°28' W 016°15'0 0.0
2018-Feb-18 06:01N 28°28' W 016°15'0 0.0
2018-Feb-18 05:30N 28°28' W 016°15'0 0.0
2018-Feb-18 05:00N 28°28' W 016°15'0 0.0
2018-Feb-18 04:31N 28°28' W 016°15'0 0.0
2018-Feb-18 04:01N 28°28' W 016°15'0 0.0
2018-Feb-18 03:31N 28°28' W 016°15'0 0.0
2018-Feb-18 03:01N 28°28' W 016°15'0 0.0
2018-Feb-18 02:30N 28°28' W 016°15'0 0.0
2018-Feb-18 02:01N 28°28' W 016°15'0 0.0
2018-Feb-18 01:31N 28°28' W 016°15'0 0.0
2018-Feb-18 01:01N 28°28' W 016°15'0 0.0
2018-Feb-18 00:30N 28°28' W 016°15'0 0.0
2018-Feb-18 00:00N 28°28' W 016°15'0 0.0
2018-Feb-17 23:31N 28°28' W 016°15'0 0.0
2018-Feb-17 23:01N 28°28' W 016°15'0 0.0
2018-Feb-17 22:30N 28°28' W 016°15'0 0.0
2018-Feb-17 22:01N 28°28' W 016°15'0 0.0
2018-Feb-17 21:30N 28°28' W 016°15'1523.7
2018-Feb-17 20:53N 28°19' W 016°02'1 0.5
2018-Feb-17 18:27N 28°20' W 016°03'1330.5
2018-Feb-17 18:01N 28°29' W 016°14'1 1.3
2018-Feb-17 17:31N 28°28' W 016°15'0 0.0
2018-Feb-17 17:01N 28°28' W 016°15'0 0.0
2018-Feb-17 16:31N 28°28' W 016°15'0 0.0
2018-Feb-17 16:01N 28°28' W 016°15'0 0.0
2018-Feb-17 15:31N 28°28' W 016°15'0 0.0
2018-Feb-17 15:01N 28°28' W 016°15'0 0.0
2018-Feb-17 14:31N 28°28' W 016°15'0 0.0
2018-Feb-17 14:01N 28°28' W 016°15'0 0.0
2018-Feb-17 13:31N 28°28' W 016°15'0 0.0
2018-Feb-17 13:01N 28°28' W 016°15'0 0.0
2018-Feb-17 12:31N 28°28' W 016°15'0 0.0
2018-Feb-17 12:00N 28°28' W 016°15'816.3
2018-Feb-17 11:30N 28°24' W 016°07'7 2.6
2018-Feb-17 08:58N 28°19' W 016°02'1431.2
2018-Feb-17 08:30N 28°29' W 016°14'1 1.2
2018-Feb-17 08:00N 28°28' W 016°15'0 0.0
2018-Feb-17 07:30N 28°28' W 016°15'0 0.0
2018-Feb-17 07:00N 28°28' W 016°15'0 0.0
2018-Feb-17 06:30N 28°28' W 016°15'0 0.0
2018-Feb-17 06:00N 28°28' W 016°15'0 0.0
2018-Feb-17 05:30N 28°28' W 016°15'0 0.0
2018-Feb-17 05:00N 28°28' W 016°15'0 0.0
2018-Feb-17 04:30N 28°28' W 016°15'0 0.0
2018-Feb-17 04:00N 28°28' W 016°15'0 0.0
2018-Feb-17 03:30N 28°28' W 016°15'0 0.0
2018-Feb-17 03:00N 28°28' W 016°15'0 0.0
2018-Feb-17 02:30N 28°28' W 016°15'0 0.0
2018-Feb-17 02:00N 28°28' W 016°15'0 0.0
2018-Feb-17 01:30N 28°28' W 016°15'0 0.0
2018-Feb-17 00:59N 28°28' W 016°15'0 0.0
2018-Feb-17 00:30N 28°28' W 016°15'0 0.0
2018-Feb-17 00:00N 28°28' W 016°15'0 0.0
2018-Feb-16 23:30N 28°28' W 016°15'0 0.0
2018-Feb-16 23:00N 28°28' W 016°15'0 0.0
2018-Feb-16 22:30N 28°28' W 016°15'0 0.0
2018-Feb-16 21:59N 28°28' W 016°15'0 0.0
2018-Feb-16 21:30N 28°28' W 016°15'917.3
2018-Feb-16 21:00N 28°23' W 016°06'5 1.9
2018-Feb-16 18:30N 28°20' W 016°03'1325.7
2018-Feb-16 17:59N 28°28' W 016°15'0 0.0
2018-Feb-16 17:30N 28°28' W 016°15'918.3
2018-Feb-16 17:00N 28°23' W 016°06'2718.3
2018-Feb-16 15:32N 28°06' W 015°43'0 0.9
2018-Feb-16 15:22N 28°06' W 015°43'925.7
2018-Feb-16 15:01N 28°11' W 015°51'1631.3
2018-Feb-16 14:30N 28°22' W 016°05'1121.9
2018-Feb-16 14:00N 28°28' W 016°15'0 0.0
2018-Feb-16 13:30N 28°28' W 016°15'0 0.5
2018-Feb-16 13:00N 28°28' W 016°14'0 0.0
2018-Feb-16 12:31N 28°28' W 016°14'0 0.0
2018-Feb-16 12:00N 28°28' W 016°14'0 0.0
2018-Feb-16 11:30N 28°28' W 016°14'0 0.0
2018-Feb-16 11:00N 28°28' W 016°14'0 0.0
2018-Feb-16 10:30N 28°28' W 016°14'0 0.5
2018-Feb-16 10:00N 28°28' W 016°15'0 0.0
2018-Feb-16 09:30N 28°28' W 016°15'4 7.5
2018-Feb-16 09:00N 28°27' W 016°11'11 4.4
2018-Feb-16 06:30N 28°19' W 016°02'1529.2
2018-Feb-16 06:00N 28°29' W 016°14'0 0.8
2018-Feb-16 05:30N 28°28' W 016°15'0 0.0
2018-Feb-16 05:00N 28°28' W 016°15'0 0.0
2018-Feb-16 04:30N 28°28' W 016°15'0 0.0
2018-Feb-16 04:00N 28°28' W 016°15'0 0.0
2018-Feb-16 03:29N 28°28' W 016°15'0 0.0
2018-Feb-16 03:00N 28°28' W 016°15'0 0.0
2018-Feb-16 02:29N 28°28' W 016°15'0 0.0
2018-Feb-16 02:00N 28°28' W 016°15'0 0.0
2018-Feb-16 01:30N 28°28' W 016°15'0 0.0
2018-Feb-16 01:00N 28°28' W 016°15'0 0.0
2018-Feb-16 00:30N 28°28' W 016°15'0 0.0
2018-Feb-16 00:00N 28°28' W 016°15'0 0.0
2018-Feb-15 23:30N 28°28' W 016°15'0 0.0
2018-Feb-15 23:00N 28°28' W 016°15'0 0.0
2018-Feb-15 22:30N 28°28' W 016°15'0 0.0
2018-Feb-15 22:00N 28°28' W 016°15'0 0.0
2018-Feb-15 21:30N 28°28' W 016°15'611.1
2018-Feb-15 21:00N 28°26' W 016°09'7 2.6
2018-Feb-15 18:26N 28°21' W 016°04'1228.9
2018-Feb-15 18:01N 28°28' W 016°15'0 0.6
2018-Feb-15 17:31N 28°28' W 016°15'611.7
2018-Feb-15 17:00N 28°25' W 016°09'9 3.5
2018-Feb-15 14:36N 28°19' W 016°02'329.2
2018-Feb-15 14:30N 28°21' W 016°05'1122.9
2018-Feb-15 14:00N 28°28' W 016°15'0 0.1
2018-Feb-15 13:30N 28°28' W 016°15'0 0.3
2018-Feb-15 13:00N 28°28' W 016°15'0 0.0
2018-Feb-15 12:30N 28°28' W 016°15'0 0.0
2018-Feb-15 12:00N 28°28' W 016°15'0 0.0
2018-Feb-15 11:30N 28°28' W 016°15'0 0.0
2018-Feb-15 11:00N 28°28' W 016°15'0 0.0
2018-Feb-15 10:30N 28°28' W 016°15'0 0.3
2018-Feb-15 10:00N 28°28' W 016°15'0 0.0
2018-Feb-15 09:30N 28°28' W 016°15'511.0
2018-Feb-15 09:00N 28°26' W 016°09'6 2.4
2018-Feb-15 06:28N 28°21' W 016°04'1225.2
2018-Feb-15 06:01N 28°28' W 016°15'0 0.1
2018-Feb-15 05:30N 28°28' W 016°15'0 0.0
2018-Feb-15 05:00N 28°28' W 016°15'0 0.0
2018-Feb-15 04:30N 28°28' W 016°15'0 0.0
2018-Feb-15 04:00N 28°28' W 016°15'0 0.0
2018-Feb-15 03:30N 28°28' W 016°15'0 0.0
2018-Feb-15 03:00N 28°28' W 016°15'0 0.0
2018-Feb-15 02:30N 28°28' W 016°15'0 0.0
2018-Feb-15 02:00N 28°28' W 016°15'0 0.0
2018-Feb-15 01:30N 28°28' W 016°15'0 0.0
2018-Feb-15 01:00N 28°28' W 016°15'0 0.0
2018-Feb-15 00:30N 28°28' W 016°15'0 0.0
2018-Feb-15 00:00N 28°28' W 016°15'0 0.0
2018-Feb-14 23:30N 28°28' W 016°15'0 0.0
2018-Feb-14 23:00N 28°28' W 016°15'0 0.0
2018-Feb-14 22:30N 28°28' W 016°15'0 0.0
2018-Feb-14 22:00N 28°28' W 016°15'0 0.0
2018-Feb-14 21:30N 28°28' W 016°15'510.3
2018-Feb-14 21:00N 28°26' W 016°10'9 3.7
2018-Feb-14 18:35N 28°20' W 016°02'331.6
2018-Feb-14 18:30N 28°22' W 016°04'1123.1
2018-Feb-14 18:00N 28°28' W 016°15'0 0.0
2018-Feb-14 17:29N 28°28' W 016°15'3 6.8
2018-Feb-14 17:01N 28°26' W 016°12'8 3.3
2018-Feb-14 14:30N 28°21' W 016°05'1223.2
2018-Feb-14 14:00N 28°28' W 016°15'0 0.4
2018-Feb-14 13:29N 28°28' W 016°15'0 0.9
2018-Feb-14 13:00N 28°28' W 016°14'0 0.0
2018-Feb-14 12:30N 28°28' W 016°14'0 0.0
2018-Feb-14 12:00N 28°28' W 016°14'0 0.0
2018-Feb-14 11:30N 28°28' W 016°14'0 0.0
2018-Feb-14 11:00N 28°28' W 016°14'0 0.0
2018-Feb-14 10:30N 28°28' W 016°14'0 0.8
2018-Feb-14 10:00N 28°28' W 016°15'0 0.0
2018-Feb-14 09:30N 28°28' W 016°15'612.0
2018-Feb-14 09:00N 28°25' W 016°09'7 2.6
2018-Feb-14 06:28N 28°20' W 016°04'1227.2
2018-Feb-14 06:00N 28°28' W 016°15'0 0.5
2018-Feb-14 05:30N 28°28' W 016°15'0 0.0
2018-Feb-14 05:00N 28°28' W 016°15'0 0.0
2018-Feb-14 04:30N 28°28' W 016°15'0 0.0
2018-Feb-14 04:00N 28°28' W 016°15'0 0.0
2018-Feb-14 03:30N 28°28' W 016°15'0 0.0
2018-Feb-14 03:00N 28°28' W 016°15'0 0.0
2018-Feb-14 02:29N 28°28' W 016°15'0 0.0
2018-Feb-14 01:59N 28°28' W 016°15'0 0.0
2018-Feb-14 01:29N 28°28' W 016°15'0 0.0
2018-Feb-14 01:00N 28°28' W 016°15'0 0.0
2018-Feb-14 00:30N 28°28' W 016°15'0 0.0
2018-Feb-14 00:00N 28°28' W 016°15'0 0.0
2018-Feb-13 23:30N 28°28' W 016°15'0 0.0
2018-Feb-13 23:00N 28°28' W 016°15'0 0.0
2018-Feb-13 22:30N 28°28' W 016°15'0 0.0
2018-Feb-13 22:00N 28°28' W 016°15'0 0.0
2018-Feb-13 21:30N 28°28' W 016°15'1 2.0
2018-Feb-13 21:01N 28°29' W 016°14'13 5.3
2018-Feb-13 18:33N 28°21' W 016°02'233.5
2018-Feb-13 18:29N 28°22' W 016°04'1121.8
2018-Feb-13 17:58N 28°28' W 016°15'0 0.0
2018-Feb-13 17:30N 28°28' W 016°15'1 2.4
2018-Feb-13 17:00N 28°28' W 016°13'13 1.8
2018-Feb-13 09:51N 28°20' W 016°03'1131.9
2018-Feb-13 09:30N 28°27' W 016°12'3 5.9
2018-Feb-13 09:00N 28°28' W 016°15'0 0.0
2018-Feb-13 08:29N 28°28' W 016°15'0 0.0
2018-Feb-13 08:00N 28°28' W 016°15'0 0.0
2018-Feb-13 07:29N 28°28' W 016°15'0 0.0
2018-Feb-13 07:00N 28°28' W 016°15'  

Dump ship's entire track history